sensor_id;sensor_type;location;lat;lon;timestamp;P1;durP1;ratioP1;P2;durP2;ratioP2
78015;SDS011;67223;51.102;5.882;2023-11-18T00:00:18;3.15;;;2.47;;
78015;SDS011;67223;51.102;5.882;2023-11-18T00:02:47;6.65;;;3.90;;
78015;SDS011;67223;51.102;5.882;2023-11-18T00:05:12;5.60;;;3.33;;
78015;SDS011;67223;51.102;5.882;2023-11-18T00:07:39;7.55;;;4.22;;
78015;SDS011;67223;51.102;5.882;2023-11-18T00:10:04;13.53;;;3.73;;
78015;SDS011;67223;51.102;5.882;2023-11-18T00:12:31;5.47;;;4.00;;
78015;SDS011;67223;51.102;5.882;2023-11-18T00:14:59;3.03;;;2.72;;
78015;SDS011;67223;51.102;5.882;2023-11-18T00:17:25;5.63;;;4.20;;
78015;SDS011;67223;51.102;5.882;2023-11-18T00:19:50;6.63;;;2.77;;
78015;SDS011;67223;51.102;5.882;2023-11-18T00:22:16;5.50;;;4.40;;
78015;SDS011;67223;51.102;5.882;2023-11-18T00:24:41;3.33;;;2.67;;
78015;SDS011;67223;51.102;5.882;2023-11-18T00:27:08;4.45;;;3.15;;
78015;SDS011;67223;51.102;5.882;2023-11-18T00:29:34;3.70;;;3.13;;
78015;SDS011;67223;51.102;5.882;2023-11-18T00:32:03;2.80;;;2.53;;
78015;SDS011;67223;51.102;5.882;2023-11-18T00:34:29;3.88;;;3.00;;
78015;SDS011;67223;51.102;5.882;2023-11-18T00:36:58;5.63;;;4.10;;
78015;SDS011;67223;51.102;5.882;2023-11-18T00:39:23;6.55;;;2.85;;
78015;SDS011;67223;51.102;5.882;2023-11-18T00:41:49;4.90;;;3.55;;
78015;SDS011;67223;51.102;5.882;2023-11-18T00:44:15;3.07;;;2.77;;
78015;SDS011;67223;51.102;5.882;2023-11-18T00:46:40;4.27;;;3.20;;
78015;SDS011;67223;51.102;5.882;2023-11-18T00:49:06;3.20;;;2.85;;
78015;SDS011;67223;51.102;5.882;2023-11-18T00:51:32;2.90;;;2.60;;
78015;SDS011;67223;51.102;5.882;2023-11-18T00:53:57;8.80;;;4.33;;
78015;SDS011;67223;51.102;5.882;2023-11-18T00:56:23;2.67;;;2.47;;
78015;SDS011;67223;51.102;5.882;2023-11-18T00:58:48;4.23;;;3.03;;
78015;SDS011;67223;51.102;5.882;2023-11-18T01:01:14;5.73;;;4.73;;
78015;SDS011;67223;51.102;5.882;2023-11-18T01:03:43;7.43;;;4.05;;
78015;SDS011;67223;51.102;5.882;2023-11-18T01:06:12;3.65;;;3.33;;
78015;SDS011;67223;51.102;5.882;2023-11-18T01:08:37;6.03;;;3.57;;
78015;SDS011;67223;51.102;5.882;2023-11-18T01:11:03;4.10;;;3.70;;
78015;SDS011;67223;51.102;5.882;2023-11-18T01:13:32;4.90;;;3.75;;
78015;SDS011;67223;51.102;5.882;2023-11-18T01:15:57;3.60;;;3.13;;
78015;SDS011;67223;51.102;5.882;2023-11-18T01:18:22;5.37;;;3.90;;
78015;SDS011;67223;51.102;5.882;2023-11-18T01:20:48;6.23;;;3.80;;
78015;SDS011;67223;51.102;5.882;2023-11-18T01:23:13;3.50;;;3.20;;
78015;SDS011;67223;51.102;5.882;2023-11-18T01:25:39;5.68;;;3.95;;
78015;SDS011;67223;51.102;5.882;2023-11-18T01:28:05;4.97;;;4.38;;
78015;SDS011;67223;51.102;5.882;2023-11-18T01:30:31;3.53;;;3.07;;
78015;SDS011;67223;51.102;5.882;2023-11-18T01:32:57;2.63;;;2.33;;
78015;SDS011;67223;51.102;5.882;2023-11-18T01:35:26;10.73;;;4.53;;
78015;SDS011;67223;51.102;5.882;2023-11-18T01:37:52;6.78;;;3.60;;
78015;SDS011;67223;51.102;5.882;2023-11-18T01:40:17;6.10;;;3.20;;
78015;SDS011;67223;51.102;5.882;2023-11-18T01:42:44;3.72;;;2.75;;
78015;SDS011;67223;51.102;5.882;2023-11-18T01:45:11;3.78;;;2.78;;
78015;SDS011;67223;51.102;5.882;2023-11-18T01:47:37;13.32;;;3.17;;
78015;SDS011;67223;51.102;5.882;2023-11-18T01:50:05;6.33;;;2.83;;
78015;SDS011;67223;51.102;5.882;2023-11-18T01:52:32;3.05;;;2.63;;
78015;SDS011;67223;51.102;5.882;2023-11-18T01:54:58;3.80;;;3.17;;
78015;SDS011;67223;51.102;5.882;2023-11-18T01:57:24;5.40;;;3.15;;
78015;SDS011;67223;51.102;5.882;2023-11-18T01:59:53;3.42;;;2.70;;
78015;SDS011;67223;51.102;5.882;2023-11-18T02:02:19;7.53;;;2.53;;
78015;SDS011;67223;51.102;5.882;2023-11-18T02:04:47;4.93;;;2.78;;
78015;SDS011;67223;51.102;5.882;2023-11-18T02:07:14;4.40;;;2.72;;
78015;SDS011;67223;51.102;5.882;2023-11-18T02:09:40;3.38;;;2.78;;
78015;SDS011;67223;51.102;5.882;2023-11-18T02:12:19;7.53;;;4.07;;
78015;SDS011;67223;51.102;5.882;2023-11-18T02:14:48;5.73;;;3.13;;
78015;SDS011;67223;51.102;5.882;2023-11-18T02:17:17;2.60;;;2.40;;
78015;SDS011;67223;51.102;5.882;2023-11-18T02:19:45;2.65;;;2.45;;
78015;SDS011;67223;51.102;5.882;2023-11-18T02:22:11;5.55;;;3.00;;
78015;SDS011;67223;51.102;5.882;2023-11-18T02:24:37;6.32;;;3.50;;
78015;SDS011;67223;51.102;5.882;2023-11-18T02:27:05;3.27;;;2.97;;
78015;SDS011;67223;51.102;5.882;2023-11-18T02:29:36;4.70;;;2.40;;
78015;SDS011;67223;51.102;5.882;2023-11-18T02:34:53;3.92;;;3.03;;
78015;SDS011;67223;51.102;5.882;2023-11-18T02:37:24;4.90;;;2.78;;
78015;SDS011;67223;51.102;5.882;2023-11-18T02:39:52;3.87;;;3.37;;
78015;SDS011;67223;51.102;5.882;2023-11-18T02:42:22;2.28;;;2.08;;
78015;SDS011;67223;51.102;5.882;2023-11-18T02:44:49;4.65;;;3.05;;
78015;SDS011;67223;51.102;5.882;2023-11-18T02:47:24;2.58;;;2.20;;
78015;SDS011;67223;51.102;5.882;2023-11-18T02:49:53;2.23;;;2.03;;
78015;SDS011;67223;51.102;5.882;2023-11-18T02:52:21;4.28;;;2.92;;
78015;SDS011;67223;51.102;5.882;2023-11-18T02:54:46;6.22;;;2.78;;
78015;SDS011;67223;51.102;5.882;2023-11-18T02:57:12;5.73;;;3.43;;
78015;SDS011;67223;51.102;5.882;2023-11-18T02:59:38;6.40;;;2.75;;
78015;SDS011;67223;51.102;5.882;2023-11-18T03:02:04;4.37;;;2.43;;
78015;SDS011;67223;51.102;5.882;2023-11-18T03:04:31;2.92;;;2.72;;
78015;SDS011;67223;51.102;5.882;2023-11-18T03:06:56;3.53;;;2.93;;
78015;SDS011;67223;51.102;5.882;2023-11-18T03:09:22;6.13;;;3.22;;
78015;SDS011;67223;51.102;5.882;2023-11-18T03:11:52;4.03;;;2.97;;
78015;SDS011;67223;51.102;5.882;2023-11-18T03:14:18;3.88;;;2.40;;
78015;SDS011;67223;51.102;5.882;2023-11-18T03:16:44;2.75;;;2.50;;
78015;SDS011;67223;51.102;5.882;2023-11-18T03:19:09;6.60;;;3.30;;
78015;SDS011;67223;51.102;5.882;2023-11-18T03:21:35;2.90;;;2.57;;
78015;SDS011;67223;51.102;5.882;2023-11-18T03:24:01;2.13;;;1.95;;
78015;SDS011;67223;51.102;5.882;2023-11-18T03:26:27;6.53;;;2.80;;
78015;SDS011;67223;51.102;5.882;2023-11-18T03:28:52;5.70;;;2.13;;
78015;SDS011;67223;51.102;5.882;2023-11-18T03:31:17;7.53;;;5.03;;
78015;SDS011;67223;51.102;5.882;2023-11-18T03:33:43;3.33;;;1.83;;
78015;SDS011;67223;51.102;5.882;2023-11-18T03:36:08;2.50;;;2.30;;
78015;SDS011;67223;51.102;5.882;2023-11-18T03:38:37;3.45;;;2.42;;
78015;SDS011;67223;51.102;5.882;2023-11-18T03:41:02;3.53;;;2.50;;
78015;SDS011;67223;51.102;5.882;2023-11-18T03:43:28;2.22;;;2.10;;
78015;SDS011;67223;51.102;5.882;2023-11-18T03:45:54;3.27;;;2.27;;
78015;SDS011;67223;51.102;5.882;2023-11-18T03:48:21;2.20;;;2.00;;
78015;SDS011;67223;51.102;5.882;2023-11-18T03:50:47;2.40;;;1.95;;
78015;SDS011;67223;51.102;5.882;2023-11-18T03:53:13;2.40;;;2.00;;
78015;SDS011;67223;51.102;5.882;2023-11-18T03:55:38;5.43;;;1.93;;
78015;SDS011;67223;51.102;5.882;2023-11-18T03:58:04;2.87;;;2.47;;
78015;SDS011;67223;51.102;5.882;2023-11-18T04:00:29;3.70;;;2.80;;
78015;SDS011;67223;51.102;5.882;2023-11-18T04:05:46;4.07;;;2.60;;
78015;SDS011;67223;51.102;5.882;2023-11-18T04:08:12;2.65;;;2.45;;
78015;SDS011;67223;51.102;5.882;2023-11-18T04:10:38;2.93;;;1.93;;
78015;SDS011;67223;51.102;5.882;2023-11-18T04:13:03;2.47;;;2.27;;
78015;SDS011;67223;51.102;5.882;2023-11-18T04:15:29;4.60;;;2.33;;
78015;SDS011;67223;51.102;5.882;2023-11-18T04:17:55;3.10;;;2.65;;
78015;SDS011;67223;51.102;5.882;2023-11-18T04:20:20;2.17;;;1.93;;
78015;SDS011;67223;51.102;5.882;2023-11-18T04:22:46;1.55;;;1.45;;
78015;SDS011;67223;51.102;5.882;2023-11-18T04:25:11;3.47;;;2.30;;
78015;SDS011;67223;51.102;5.882;2023-11-18T04:27:37;4.43;;;3.20;;
78015;SDS011;67223;51.102;5.882;2023-11-18T04:30:04;1.77;;;1.67;;
78015;SDS011;67223;51.102;5.882;2023-11-18T04:32:30;1.52;;;1.42;;
78015;SDS011;67223;51.102;5.882;2023-11-18T04:34:58;1.55;;;1.45;;
78015;SDS011;67223;51.102;5.882;2023-11-18T04:37:23;1.63;;;1.52;;
78015;SDS011;67223;51.102;5.882;2023-11-18T04:39:50;1.45;;;1.35;;
78015;SDS011;67223;51.102;5.882;2023-11-18T04:42:15;1.73;;;1.63;;
78015;SDS011;67223;51.102;5.882;2023-11-18T04:44:41;6.75;;;2.13;;
78015;SDS011;67223;51.102;5.882;2023-11-18T04:47:07;2.40;;;1.97;;
78015;SDS011;67223;51.102;5.882;2023-11-18T04:49:32;2.03;;;1.88;;
78015;SDS011;67223;51.102;5.882;2023-11-18T04:51:58;1.53;;;1.43;;
78015;SDS011;67223;51.102;5.882;2023-11-18T04:54:24;4.67;;;2.10;;
78015;SDS011;67223;51.102;5.882;2023-11-18T04:56:49;2.05;;;1.85;;
78015;SDS011;67223;51.102;5.882;2023-11-18T04:59:15;4.30;;;1.83;;
78015;SDS011;67223;51.102;5.882;2023-11-18T05:01:43;1.77;;;1.40;;
78015;SDS011;67223;51.102;5.882;2023-11-18T05:04:09;1.33;;;1.23;;
78015;SDS011;67223;51.102;5.882;2023-11-18T05:06:34;4.20;;;2.25;;
78015;SDS011;67223;51.102;5.882;2023-11-18T05:09:00;3.03;;;2.13;;
78015;SDS011;67223;51.102;5.882;2023-11-18T05:11:25;4.00;;;2.70;;
78015;SDS011;67223;51.102;5.882;2023-11-18T05:13:51;1.90;;;1.80;;
78015;SDS011;67223;51.102;5.882;2023-11-18T05:16:16;2.73;;;1.23;;
78015;SDS011;67223;51.102;5.882;2023-11-18T05:18:42;1.42;;;1.33;;
78015;SDS011;67223;51.102;5.882;2023-11-18T05:21:08;8.00;;;1.57;;
78015;SDS011;67223;51.102;5.882;2023-11-18T05:23:34;1.67;;;1.57;;
78015;SDS011;67223;51.102;5.882;2023-11-18T05:26:01;1.52;;;1.42;;
78015;SDS011;67223;51.102;5.882;2023-11-18T05:28:29;1.63;;;1.52;;
78015;SDS011;67223;51.102;5.882;2023-11-18T05:30:55;1.07;;;1.07;;
78015;SDS011;67223;51.102;5.882;2023-11-18T05:33:23;1.25;;;1.20;;
78015;SDS011;67223;51.102;5.882;2023-11-18T05:35:48;1.88;;;1.73;;
78015;SDS011;67223;51.102;5.882;2023-11-18T05:38:17;1.40;;;1.30;;
78015;SDS011;67223;51.102;5.882;2023-11-18T05:40:46;2.30;;;2.10;;
78015;SDS011;67223;51.102;5.882;2023-11-18T05:43:25;1.48;;;1.38;;
78015;SDS011;67223;51.102;5.882;2023-11-18T05:45:54;4.30;;;1.57;;
78015;SDS011;67223;51.102;5.882;2023-11-18T05:48:40;2.30;;;1.65;;
78015;SDS011;67223;51.102;5.882;2023-11-18T05:51:09;2.05;;;1.92;;
78015;SDS011;67223;51.102;5.882;2023-11-18T05:53:38;2.05;;;1.85;;
78015;SDS011;67223;51.102;5.882;2023-11-18T05:56:10;2.17;;;1.30;;
78015;SDS011;67223;51.102;5.882;2023-11-18T05:58:36;0.82;;;0.82;;
78015;SDS011;67223;51.102;5.882;2023-11-18T06:01:02;1.40;;;1.30;;
78015;SDS011;67223;51.102;5.882;2023-11-18T06:03:28;0.93;;;0.93;;
78015;SDS011;67223;51.102;5.882;2023-11-18T06:05:53;2.33;;;1.73;;
78015;SDS011;67223;51.102;5.882;2023-11-18T06:08:19;4.03;;;1.83;;
78015;SDS011;67223;51.102;5.882;2023-11-18T06:10:47;1.88;;;1.70;;
78015;SDS011;67223;51.102;5.882;2023-11-18T06:13:14;1.13;;;0.95;;
78015;SDS011;67223;51.102;5.882;2023-11-18T06:15:41;1.48;;;1.38;;
78015;SDS011;67223;51.102;5.882;2023-11-18T06:18:08;1.15;;;1.08;;
78015;SDS011;67223;51.102;5.882;2023-11-18T06:20:34;1.57;;;1.47;;
78015;SDS011;67223;51.102;5.882;2023-11-18T06:23:00;1.63;;;1.52;;
78015;SDS011;67223;51.102;5.882;2023-11-18T06:25:26;3.80;;;1.33;;
78015;SDS011;67223;51.102;5.882;2023-11-18T06:27:51;1.13;;;1.13;;
78015;SDS011;67223;51.102;5.882;2023-11-18T06:30:19;5.47;;;1.40;;
78015;SDS011;67223;51.102;5.882;2023-11-18T06:32:45;1.77;;;1.20;;
78015;SDS011;67223;51.102;5.882;2023-11-18T06:35:14;2.15;;;1.77;;
78015;SDS011;67223;51.102;5.882;2023-11-18T06:37:40;1.43;;;1.33;;
78015;SDS011;67223;51.102;5.882;2023-11-18T06:40:06;1.55;;;1.45;;
78015;SDS011;67223;51.102;5.882;2023-11-18T06:42:41;2.03;;;1.63;;
78015;SDS011;67223;51.102;5.882;2023-11-18T06:45:07;1.57;;;1.43;;
78015;SDS011;67223;51.102;5.882;2023-11-18T06:47:34;1.48;;;1.38;;
78015;SDS011;67223;51.102;5.882;2023-11-18T06:50:01;1.40;;;1.30;;
78015;SDS011;67223;51.102;5.882;2023-11-18T06:52:27;2.78;;;2.00;;
78015;SDS011;67223;51.102;5.882;2023-11-18T06:54:53;1.55;;;1.30;;
78015;SDS011;67223;51.102;5.882;2023-11-18T06:57:19;1.73;;;1.60;;
78015;SDS011;67223;51.102;5.882;2023-11-18T06:59:46;2.88;;;1.90;;
78015;SDS011;67223;51.102;5.882;2023-11-18T07:02:13;1.17;;;1.10;;
78015;SDS011;67223;51.102;5.882;2023-11-18T07:04:40;1.30;;;1.20;;
78015;SDS011;67223;51.102;5.882;2023-11-18T07:07:05;1.17;;;1.10;;
78015;SDS011;67223;51.102;5.882;2023-11-18T07:09:34;3.50;;;1.73;;
78015;SDS011;67223;51.102;5.882;2023-11-18T07:12:01;1.95;;;1.60;;
78015;SDS011;67223;51.102;5.882;2023-11-18T07:14:28;3.77;;;2.27;;
78015;SDS011;67223;51.102;5.882;2023-11-18T07:16:54;1.75;;;1.40;;
78015;SDS011;67223;51.102;5.882;2023-11-18T07:19:20;3.55;;;1.27;;
78015;SDS011;67223;51.102;5.882;2023-11-18T07:21:46;1.77;;;1.63;;
78015;SDS011;67223;51.102;5.882;2023-11-18T07:24:12;1.00;;;1.00;;
78015;SDS011;67223;51.102;5.882;2023-11-18T07:26:37;1.37;;;1.27;;
78015;SDS011;67223;51.102;5.882;2023-11-18T07:29:03;2.27;;;1.20;;
78015;SDS011;67223;51.102;5.882;2023-11-18T07:31:28;0.85;;;0.85;;
78015;SDS011;67223;51.102;5.882;2023-11-18T07:33:54;1.37;;;1.27;;
78015;SDS011;67223;51.102;5.882;2023-11-18T07:36:20;0.70;;;0.70;;
78015;SDS011;67223;51.102;5.882;2023-11-18T07:38:46;0.93;;;0.93;;
78015;SDS011;67223;51.102;5.882;2023-11-18T07:41:12;1.50;;;1.40;;
78015;SDS011;67223;51.102;5.882;2023-11-18T07:43:49;1.00;;;1.00;;
78015;SDS011;67223;51.102;5.882;2023-11-18T07:46:16;1.03;;;1.03;;
78015;SDS011;67223;51.102;5.882;2023-11-18T07:48:41;0.80;;;0.80;;
78015;SDS011;67223;51.102;5.882;2023-11-18T07:51:06;1.00;;;0.90;;
78015;SDS011;67223;51.102;5.882;2023-11-18T07:53:33;1.15;;;1.10;;
78015;SDS011;67223;51.102;5.882;2023-11-18T07:55:59;2.77;;;0.90;;
78015;SDS011;67223;51.102;5.882;2023-11-18T07:58:27;5.60;;;1.15;;
78015;SDS011;67223;51.102;5.882;2023-11-18T08:00:53;2.27;;;1.23;;
78015;SDS011;67223;51.102;5.882;2023-11-18T08:03:19;0.93;;;0.93;;
78015;SDS011;67223;51.102;5.882;2023-11-18T08:05:45;0.90;;;0.90;;
78015;SDS011;67223;51.102;5.882;2023-11-18T08:08:11;0.83;;;0.83;;
78015;SDS011;67223;51.102;5.882;2023-11-18T08:10:37;1.73;;;1.42;;
78015;SDS011;67223;51.102;5.882;2023-11-18T08:13:04;8.23;;;2.65;;
78015;SDS011;67223;51.102;5.882;2023-11-18T08:15:31;0.80;;;0.80;;
78015;SDS011;67223;51.102;5.882;2023-11-18T08:17:57;1.13;;;1.13;;
78015;SDS011;67223;51.102;5.882;2023-11-18T08:20:22;0.87;;;0.87;;
78015;SDS011;67223;51.102;5.882;2023-11-18T08:22:50;0.95;;;0.95;;
78015;SDS011;67223;51.102;5.882;2023-11-18T08:25:16;1.27;;;1.17;;
78015;SDS011;67223;51.102;5.882;2023-11-18T08:27:43;4.45;;;1.17;;
78015;SDS011;67223;51.102;5.882;2023-11-18T08:30:10;0.80;;;0.80;;
78015;SDS011;67223;51.102;5.882;2023-11-18T08:32:38;1.10;;;1.10;;
78015;SDS011;67223;51.102;5.882;2023-11-18T08:35:07;4.47;;;1.90;;
78015;SDS011;67223;51.102;5.882;2023-11-18T08:37:36;0.93;;;0.93;;
78015;SDS011;67223;51.102;5.882;2023-11-18T08:40:05;1.23;;;1.13;;
78015;SDS011;67223;51.102;5.882;2023-11-18T08:42:39;2.63;;;1.50;;
78015;SDS011;67223;51.102;5.882;2023-11-18T08:45:13;6.72;;;1.10;;
78015;SDS011;67223;51.102;5.882;2023-11-18T08:47:42;1.13;;;1.05;;
78015;SDS011;67223;51.102;5.882;2023-11-18T08:50:08;0.70;;;0.70;;
78015;SDS011;67223;51.102;5.882;2023-11-18T08:52:37;1.15;;;1.15;;
78015;SDS011;67223;51.102;5.882;2023-11-18T08:55:08;1.27;;;1.17;;
78015;SDS011;67223;51.102;5.882;2023-11-18T08:57:47;4.53;;;1.75;;
78015;SDS011;67223;51.102;5.882;2023-11-18T09:00:34;0.70;;;0.70;;
78015;SDS011;67223;51.102;5.882;2023-11-18T09:03:14;8.90;;;1.33;;
78015;SDS011;67223;51.102;5.882;2023-11-18T09:05:57;1.20;;;1.15;;
78015;SDS011;67223;51.102;5.882;2023-11-18T09:08:27;0.82;;;0.82;;
78015;SDS011;67223;51.102;5.882;2023-11-18T09:11:00;0.90;;;0.90;;
78015;SDS011;67223;51.102;5.882;2023-11-18T09:13:33;3.55;;;2.25;;
78015;SDS011;67223;51.102;5.882;2023-11-18T09:16:02;1.30;;;1.20;;
78015;SDS011;67223;51.102;5.882;2023-11-18T09:18:29;1.48;;;1.38;;
78015;SDS011;67223;51.102;5.882;2023-11-18T09:20:57;1.05;;;0.98;;
78015;SDS011;67223;51.102;5.882;2023-11-18T09:23:30;0.80;;;0.80;;
78015;SDS011;67223;51.102;5.882;2023-11-18T09:26:03;0.80;;;0.80;;
78015;SDS011;67223;51.102;5.882;2023-11-18T09:28:35;1.17;;;1.07;;
78015;SDS011;67223;51.102;5.882;2023-11-18T09:31:02;1.10;;;1.10;;
78015;SDS011;67223;51.102;5.882;2023-11-18T09:33:29;7.45;;;2.50;;
78015;SDS011;67223;51.102;5.882;2023-11-18T09:36:03;1.15;;;1.00;;
78015;SDS011;67223;51.102;5.882;2023-11-18T09:38:36;0.77;;;0.77;;
78015;SDS011;67223;51.102;5.882;2023-11-18T09:41:05;1.27;;;1.17;;
78015;SDS011;67223;51.102;5.882;2023-11-18T09:43:39;6.60;;;1.98;;
78015;SDS011;67223;51.102;5.882;2023-11-18T09:46:12;8.13;;;1.00;;
78015;SDS011;67223;51.102;5.882;2023-11-18T09:51:24;0.90;;;0.90;;
78015;SDS011;67223;51.102;5.882;2023-11-18T09:54:09;0.90;;;0.90;;
78015;SDS011;67223;51.102;5.882;2023-11-18T09:56:52;0.90;;;0.90;;
78015;SDS011;67223;51.102;5.882;2023-11-18T10:02:20;1.00;;;1.00;;
78015;SDS011;67223;51.102;5.882;2023-11-18T10:04:48;1.35;;;1.25;;
78015;SDS011;67223;51.102;5.882;2023-11-18T10:07:19;0.60;;;0.60;;
78015;SDS011;67223;51.102;5.882;2023-11-18T10:09:47;3.22;;;1.40;;
78015;SDS011;67223;51.102;5.882;2023-11-18T10:12:14;4.32;;;0.90;;
78015;SDS011;67223;51.102;5.882;2023-11-18T10:14:42;0.80;;;0.80;;
78015;SDS011;67223;51.102;5.882;2023-11-18T10:17:11;9.88;;;1.67;;
78015;SDS011;67223;51.102;5.882;2023-11-18T10:19:55;1.43;;;1.27;;
78015;SDS011;67223;51.102;5.882;2023-11-18T10:22:22;0.88;;;0.88;;
78015;SDS011;67223;51.102;5.882;2023-11-18T10:24:49;6.22;;;2.45;;
78015;SDS011;67223;51.102;5.882;2023-11-18T10:27:19;1.17;;;1.10;;
78015;SDS011;67223;51.102;5.882;2023-11-18T10:29:50;1.35;;;1.25;;
78015;SDS011;67223;51.102;5.882;2023-11-18T10:32:19;4.40;;;1.67;;
78015;SDS011;67223;51.102;5.882;2023-11-18T10:34:48;2.25;;;1.15;;
78015;SDS011;67223;51.102;5.882;2023-11-18T10:37:16;0.82;;;0.82;;
78015;SDS011;67223;51.102;5.882;2023-11-18T10:39:46;1.53;;;1.20;;
78015;SDS011;67223;51.102;5.882;2023-11-18T10:42:17;0.80;;;0.80;;
78015;SDS011;67223;51.102;5.882;2023-11-18T10:44:58;1.20;;;1.15;;
78015;SDS011;67223;51.102;5.882;2023-11-18T10:47:26;1.48;;;1.38;;
78015;SDS011;67223;51.102;5.882;2023-11-18T10:49:53;1.10;;;1.00;;
78015;SDS011;67223;51.102;5.882;2023-11-18T10:52:21;1.00;;;1.00;;
78015;SDS011;67223;51.102;5.882;2023-11-18T10:54:54;1.17;;;1.07;;
78015;SDS011;67223;51.102;5.882;2023-11-18T10:57:21;3.00;;;2.50;;
78015;SDS011;67223;51.102;5.882;2023-11-18T11:00:00;1.30;;;1.20;;
78015;SDS011;67223;51.102;5.882;2023-11-18T11:02:38;1.10;;;1.00;;
78015;SDS011;67223;51.102;5.882;2023-11-18T11:05:06;2.13;;;1.40;;
78015;SDS011;67223;51.102;5.882;2023-11-18T11:07:33;1.33;;;1.00;;
78015;SDS011;67223;51.102;5.882;2023-11-18T11:09:59;1.23;;;1.13;;
78015;SDS011;67223;51.102;5.882;2023-11-18T11:12:29;7.97;;;2.15;;
78015;SDS011;67223;51.102;5.882;2023-11-18T11:15:12;1.10;;;1.00;;
78015;SDS011;67223;51.102;5.882;2023-11-18T11:17:53;1.07;;;0.97;;
78015;SDS011;67223;51.102;5.882;2023-11-18T11:20:27;0.80;;;0.80;;
78015;SDS011;67223;51.102;5.882;2023-11-18T11:25:50;2.17;;;1.02;;
78015;SDS011;67223;51.102;5.882;2023-11-18T11:28:43;1.02;;;1.02;;
78015;SDS011;67223;51.102;5.882;2023-11-18T11:34:03;0.90;;;0.90;;
78015;SDS011;67223;51.102;5.882;2023-11-18T11:36:42;3.95;;;2.38;;
78015;SDS011;67223;51.102;5.882;2023-11-18T11:39:15;1.95;;;0.88;;
78015;SDS011;67223;51.102;5.882;2023-11-18T11:41:51;1.27;;;1.17;;
78015;SDS011;67223;51.102;5.882;2023-11-18T11:44:19;2.23;;;1.30;;
78015;SDS011;67223;51.102;5.882;2023-11-18T11:46:48;0.80;;;0.80;;
78015;SDS011;67223;51.102;5.882;2023-11-18T11:49:18;0.88;;;0.88;;
78015;SDS011;67223;51.102;5.882;2023-11-18T11:51:47;0.60;;;0.60;;
78015;SDS011;67223;51.102;5.882;2023-11-18T11:54:23;5.75;;;0.90;;
78015;SDS011;67223;51.102;5.882;2023-11-18T11:56:55;1.80;;;1.43;;
78015;SDS011;67223;51.102;5.882;2023-11-18T12:02:09;4.38;;;1.40;;
78015;SDS011;67223;51.102;5.882;2023-11-18T12:04:51;0.68;;;0.68;;
78015;SDS011;67223;51.102;5.882;2023-11-18T12:07:19;0.70;;;0.70;;
78015;SDS011;67223;51.102;5.882;2023-11-18T12:09:48;0.80;;;0.80;;
78015;SDS011;67223;51.102;5.882;2023-11-18T12:12:23;3.75;;;1.05;;
78015;SDS011;67223;51.102;5.882;2023-11-18T12:14:52;0.82;;;0.82;;
78015;SDS011;67223;51.102;5.882;2023-11-18T12:20:39;1.80;;;1.33;;
78015;SDS011;67223;51.102;5.882;2023-11-18T12:23:12;0.90;;;0.90;;
78015;SDS011;67223;51.102;5.882;2023-11-18T12:25:46;0.80;;;0.80;;
78015;SDS011;67223;51.102;5.882;2023-11-18T12:28:17;0.70;;;0.70;;
78015;SDS011;67223;51.102;5.882;2023-11-18T12:30:52;1.42;;;1.27;;
78015;SDS011;67223;51.102;5.882;2023-11-18T12:36:33;2.43;;;1.37;;
78015;SDS011;67223;51.102;5.882;2023-11-18T12:42:06;1.23;;;1.13;;
78015;SDS011;67223;51.102;5.882;2023-11-18T12:47:41;1.05;;;0.98;;
78015;SDS011;67223;51.102;5.882;2023-11-18T12:50:11;3.13;;;1.10;;
78015;SDS011;67223;51.102;5.882;2023-11-18T12:52:48;0.80;;;0.80;;
78015;SDS011;67223;51.102;5.882;2023-11-18T12:55:14;0.80;;;0.80;;
78015;SDS011;67223;51.102;5.882;2023-11-18T12:57:47;0.93;;;0.93;;
78015;SDS011;67223;51.102;5.882;2023-11-18T13:00:16;1.73;;;1.63;;
78015;SDS011;67223;51.102;5.882;2023-11-18T13:02:52;2.10;;;1.00;;
78015;SDS011;67223;51.102;5.882;2023-11-18T13:05:19;1.50;;;1.30;;
78015;SDS011;67223;51.102;5.882;2023-11-18T13:07:45;1.77;;;1.10;;
78015;SDS011;67223;51.102;5.882;2023-11-18T13:10:12;0.80;;;0.80;;
78015;SDS011;67223;51.102;5.882;2023-11-18T13:12:41;0.80;;;0.80;;
78015;SDS011;67223;51.102;5.882;2023-11-18T13:15:08;1.27;;;1.17;;
78015;SDS011;67223;51.102;5.882;2023-11-18T13:17:34;0.70;;;0.70;;
78015;SDS011;67223;51.102;5.882;2023-11-18T13:20:12;2.60;;;1.00;;
78015;SDS011;67223;51.102;5.882;2023-11-18T13:22:39;1.10;;;1.00;;
78015;SDS011;67223;51.102;5.882;2023-11-18T13:25:08;0.80;;;0.80;;
78015;SDS011;67223;51.102;5.882;2023-11-18T13:27:34;0.70;;;0.70;;
78015;SDS011;67223;51.102;5.882;2023-11-18T13:30:01;0.80;;;0.80;;
78015;SDS011;67223;51.102;5.882;2023-11-18T13:32:28;0.80;;;0.80;;
78015;SDS011;67223;51.102;5.882;2023-11-18T13:34:54;3.90;;;1.67;;
78015;SDS011;67223;51.102;5.882;2023-11-18T13:37:20;0.70;;;0.70;;
78015;SDS011;67223;51.102;5.882;2023-11-18T13:39:56;1.90;;;1.13;;
78015;SDS011;67223;51.102;5.882;2023-11-18T13:42:26;1.95;;;1.48;;
78015;SDS011;67223;51.102;5.882;2023-11-18T13:45:00;0.93;;;0.83;;
78015;SDS011;67223;51.102;5.882;2023-11-18T13:47:31;1.35;;;1.30;;
78015;SDS011;67223;51.102;5.882;2023-11-18T13:49:57;0.97;;;0.97;;
78015;SDS011;67223;51.102;5.882;2023-11-18T13:52:25;0.88;;;0.88;;
78015;SDS011;67223;51.102;5.882;2023-11-18T13:54:51;1.08;;;0.98;;
78015;SDS011;67223;51.102;5.882;2023-11-18T13:57:22;1.02;;;1.02;;
78015;SDS011;67223;51.102;5.882;2023-11-18T13:59:52;0.83;;;0.83;;
78015;SDS011;67223;51.102;5.882;2023-11-18T14:02:19;1.40;;;0.80;;
78015;SDS011;67223;51.102;5.882;2023-11-18T14:04:46;1.35;;;0.80;;
78015;SDS011;67223;51.102;5.882;2023-11-18T14:07:14;0.70;;;0.70;;
78015;SDS011;67223;51.102;5.882;2023-11-18T14:09:43;0.77;;;0.77;;
78015;SDS011;67223;51.102;5.882;2023-11-18T14:12:11;0.88;;;0.88;;
78015;SDS011;67223;51.102;5.882;2023-11-18T14:14:38;0.77;;;0.77;;
78015;SDS011;67223;51.102;5.882;2023-11-18T14:17:06;0.70;;;0.70;;
78015;SDS011;67223;51.102;5.882;2023-11-18T14:19:35;0.60;;;0.60;;
78015;SDS011;67223;51.102;5.882;2023-11-18T14:22:00;0.70;;;0.70;;
78015;SDS011;67223;51.102;5.882;2023-11-18T14:24:31;0.90;;;0.90;;
78015;SDS011;67223;51.102;5.882;2023-11-18T14:26:58;0.60;;;0.60;;
78015;SDS011;67223;51.102;5.882;2023-11-18T14:29:24;0.70;;;0.70;;
78015;SDS011;67223;51.102;5.882;2023-11-18T14:31:49;0.97;;;0.97;;
78015;SDS011;67223;51.102;5.882;2023-11-18T14:34:15;0.70;;;0.70;;
78015;SDS011;67223;51.102;5.882;2023-11-18T14:36:40;0.77;;;0.77;;
78015;SDS011;67223;51.102;5.882;2023-11-18T14:39:06;0.90;;;0.90;;
78015;SDS011;67223;51.102;5.882;2023-11-18T14:41:35;0.90;;;0.90;;
78015;SDS011;67223;51.102;5.882;2023-11-18T14:44:01;0.80;;;0.80;;
78015;SDS011;67223;51.102;5.882;2023-11-18T14:46:29;1.13;;;1.05;;
78015;SDS011;67223;51.102;5.882;2023-11-18T14:48:56;0.85;;;0.82;;
78015;SDS011;67223;51.102;5.882;2023-11-18T14:51:22;0.80;;;0.80;;
78015;SDS011;67223;51.102;5.882;2023-11-18T14:53:47;1.13;;;0.95;;
78015;SDS011;67223;51.102;5.882;2023-11-18T14:56:13;0.70;;;0.70;;
78015;SDS011;67223;51.102;5.882;2023-11-18T14:58:40;0.93;;;0.88;;
78015;SDS011;67223;51.102;5.882;2023-11-18T15:01:06;0.90;;;0.90;;
78015;SDS011;67223;51.102;5.882;2023-11-18T15:03:32;0.73;;;0.73;;
78015;SDS011;67223;51.102;5.882;2023-11-18T15:05:58;0.70;;;0.70;;
78015;SDS011;67223;51.102;5.882;2023-11-18T15:08:23;1.00;;;1.00;;
78015;SDS011;67223;51.102;5.882;2023-11-18T15:10:49;0.80;;;0.80;;
78015;SDS011;67223;51.102;5.882;2023-11-18T15:13:15;0.70;;;0.70;;
78015;SDS011;67223;51.102;5.882;2023-11-18T15:15:42;1.00;;;0.90;;
78015;SDS011;67223;51.102;5.882;2023-11-18T15:18:12;0.80;;;0.80;;
78015;SDS011;67223;51.102;5.882;2023-11-18T15:20:48;0.90;;;0.80;;
78015;SDS011;67223;51.102;5.882;2023-11-18T15:23:15;0.70;;;0.70;;
78015;SDS011;67223;51.102;5.882;2023-11-18T15:25:48;0.70;;;0.70;;